Current Weather

Chicago O'Hare International

Chicago, Illinois (KORD)

Report from: Friday, March 1, 2024 1:51 PM CST
Current time: Friday, March 1, 2024 2:51 PM CST

Nearby weather – Weather history – Daily summaries
Weather forecast

Temperature7.2°C (45.0°F)
Wind chill5.1°C (41.2°F)
Dew point-6.7°C (19.9°F)
Winds 6 kts (3.1 m/s, 6.9 mph) South-Southeast (150°)
Visibility10 mi. (16.1 km)
Clouds Ceiling: Broken clouds 5,000 ft. (1,524 m)
Overcast 8,000 ft. (2,438 m)
Altimeter30.10 in.Hg (1019 mB)
Relative humidity36 %
Density altitude-1,098 ft. (-335 m)
Sea-level pressure102.0 kPa (1020 mB, 30.11 in.Hg)
Remarks Automated weather observing station with precipitation discriminator
Virga observed
Flight conditions Visual Meteorological Conditions
Raw dataKORD 011951Z 15006KT 10SM BKN050 OVC080 07/M07 A3010 RMK AO2 SLP198 VIRGA T00721067
An unhandled exception has occurred. See browser dev tools for details. Reload 🗙